sensor_id;sensor_type;location;lat;lon;timestamp;P1;durP1;ratioP1;P2;durP2;ratioP2
58141;SDS011;53186;47.382;18.904;2022-07-09T00:01:20;5.25;;;1.80;;
58141;SDS011;53186;47.382;18.904;2022-07-09T00:03:48;4.60;;;1.77;;
58141;SDS011;53186;47.382;18.904;2022-07-09T00:06:15;3.50;;;1.70;;
58141;SDS011;53186;47.382;18.904;2022-07-09T00:08:42;7.55;;;1.90;;
58141;SDS011;53186;47.382;18.904;2022-07-09T00:11:10;4.68;;;2.75;;
58141;SDS011;53186;47.382;18.904;2022-07-09T00:13:37;8.45;;;2.50;;
58141;SDS011;53186;47.382;18.904;2022-07-09T00:16:04;5.70;;;2.10;;
58141;SDS011;53186;47.382;18.904;2022-07-09T00:18:32;4.30;;;1.90;;
58141;SDS011;53186;47.382;18.904;2022-07-09T00:20:59;4.28;;;2.00;;
58141;SDS011;53186;47.382;18.904;2022-07-09T00:23:27;5.03;;;1.80;;
58141;SDS011;53186;47.382;18.904;2022-07-09T00:25:54;5.82;;;2.20;;
58141;SDS011;53186;47.382;18.904;2022-07-09T00:28:21;2.67;;;1.45;;
58141;SDS011;53186;47.382;18.904;2022-07-09T00:30:48;3.12;;;1.62;;
58141;SDS011;53186;47.382;18.904;2022-07-09T00:33:16;3.37;;;1.58;;
58141;SDS011;53186;47.382;18.904;2022-07-09T00:35:43;4.57;;;1.92;;
58141;SDS011;53186;47.382;18.904;2022-07-09T00:38:10;2.90;;;1.80;;
58141;SDS011;53186;47.382;18.904;2022-07-09T00:40:37;3.95;;;2.20;;
58141;SDS011;53186;47.382;18.904;2022-07-09T00:43:14;4.55;;;1.73;;
58141;SDS011;53186;47.382;18.904;2022-07-09T00:45:45;3.60;;;1.70;;
58141;SDS011;53186;47.382;18.904;2022-07-09T00:48:13;3.17;;;1.70;;
58141;SDS011;53186;47.382;18.904;2022-07-09T00:50:41;5.57;;;1.80;;
58141;SDS011;53186;47.382;18.904;2022-07-09T00:53:10;5.80;;;1.85;;
58141;SDS011;53186;47.382;18.904;2022-07-09T00:55:39;5.43;;;1.95;;
58141;SDS011;53186;47.382;18.904;2022-07-09T00:58:07;2.78;;;1.70;;
58141;SDS011;53186;47.382;18.904;2022-07-09T01:00:36;4.15;;;1.98;;
58141;SDS011;53186;47.382;18.904;2022-07-09T01:03:03;6.25;;;1.70;;
58141;SDS011;53186;47.382;18.904;2022-07-09T01:05:30;3.53;;;1.92;;
58141;SDS011;53186;47.382;18.904;2022-07-09T01:08:06;5.80;;;1.90;;
58141;SDS011;53186;47.382;18.904;2022-07-09T01:10:35;5.03;;;1.70;;
58141;SDS011;53186;47.382;18.904;2022-07-09T01:13:03;3.35;;;1.58;;
58141;SDS011;53186;47.382;18.904;2022-07-09T01:15:31;3.95;;;2.05;;
58141;SDS011;53186;47.382;18.904;2022-07-09T01:17:59;3.75;;;1.70;;
58141;SDS011;53186;47.382;18.904;2022-07-09T01:20:27;4.57;;;1.65;;
58141;SDS011;53186;47.382;18.904;2022-07-09T01:22:58;4.87;;;2.00;;
58141;SDS011;53186;47.382;18.904;2022-07-09T01:25:35;7.57;;;1.80;;
58141;SDS011;53186;47.382;18.904;2022-07-09T01:28:07;4.45;;;1.60;;
58141;SDS011;53186;47.382;18.904;2022-07-09T01:30:36;5.20;;;1.70;;
58141;SDS011;53186;47.382;18.904;2022-07-09T01:33:06;3.67;;;1.95;;
58141;SDS011;53186;47.382;18.904;2022-07-09T01:35:34;3.20;;;1.62;;
58141;SDS011;53186;47.382;18.904;2022-07-09T01:38:01;2.65;;;1.70;;
58141;SDS011;53186;47.382;18.904;2022-07-09T01:40:28;5.75;;;1.92;;
58141;SDS011;53186;47.382;18.904;2022-07-09T01:42:56;4.10;;;1.73;;
58141;SDS011;53186;47.382;18.904;2022-07-09T01:45:23;4.18;;;1.90;;
58141;SDS011;53186;47.382;18.904;2022-07-09T01:47:50;5.50;;;1.90;;
58141;SDS011;53186;47.382;18.904;2022-07-09T01:50:18;4.47;;;1.80;;
58141;SDS011;53186;47.382;18.904;2022-07-09T01:52:45;4.87;;;2.00;;
58141;SDS011;53186;47.382;18.904;2022-07-09T01:55:12;4.05;;;2.65;;
58141;SDS011;53186;47.382;18.904;2022-07-09T01:57:40;4.75;;;1.83;;
58141;SDS011;53186;47.382;18.904;2022-07-09T02:00:07;6.95;;;2.28;;
58141;SDS011;53186;47.382;18.904;2022-07-09T02:02:38;3.47;;;1.90;;
58141;SDS011;53186;47.382;18.904;2022-07-09T02:05:06;4.95;;;1.83;;
58141;SDS011;53186;47.382;18.904;2022-07-09T02:07:33;7.20;;;2.15;;
58141;SDS011;53186;47.382;18.904;2022-07-09T02:10:01;3.65;;;2.00;;
58141;SDS011;53186;47.382;18.904;2022-07-09T02:12:29;4.68;;;2.03;;
58141;SDS011;53186;47.382;18.904;2022-07-09T02:14:56;4.20;;;1.80;;
58141;SDS011;53186;47.382;18.904;2022-07-09T02:17:24;5.45;;;1.87;;
58141;SDS011;53186;47.382;18.904;2022-07-09T02:19:51;6.47;;;2.03;;
58141;SDS011;53186;47.382;18.904;2022-07-09T02:22:18;4.28;;;1.83;;
58141;SDS011;53186;47.382;18.904;2022-07-09T02:24:45;5.90;;;1.80;;
58141;SDS011;53186;47.382;18.904;2022-07-09T02:27:13;4.93;;;2.28;;
58141;SDS011;53186;47.382;18.904;2022-07-09T02:29:40;5.82;;;2.10;;
58141;SDS011;53186;47.382;18.904;2022-07-09T02:32:07;3.80;;;1.92;;
58141;SDS011;53186;47.382;18.904;2022-07-09T02:34:37;5.18;;;1.80;;
58141;SDS011;53186;47.382;18.904;2022-07-09T02:37:05;6.35;;;2.20;;
58141;SDS011;53186;47.382;18.904;2022-07-09T02:39:32;5.28;;;2.25;;
58141;SDS011;53186;47.382;18.904;2022-07-09T02:42:00;3.20;;;1.90;;
58141;SDS011;53186;47.382;18.904;2022-07-09T02:44:27;5.20;;;1.90;;
58141;SDS011;53186;47.382;18.904;2022-07-09T02:46:54;4.62;;;2.10;;
58141;SDS011;53186;47.382;18.904;2022-07-09T02:49:22;4.82;;;2.17;;
58141;SDS011;53186;47.382;18.904;2022-07-09T02:51:50;5.15;;;2.10;;
58141;SDS011;53186;47.382;18.904;2022-07-09T02:54:19;6.35;;;2.00;;
58141;SDS011;53186;47.382;18.904;2022-07-09T02:56:46;9.40;;;2.33;;
58141;SDS011;53186;47.382;18.904;2022-07-09T02:59:13;5.80;;;2.00;;
58141;SDS011;53186;47.382;18.904;2022-07-09T03:01:41;4.78;;;1.83;;
58141;SDS011;53186;47.382;18.904;2022-07-09T03:04:08;6.35;;;2.12;;
58141;SDS011;53186;47.382;18.904;2022-07-09T03:06:36;6.65;;;3.03;;
58141;SDS011;53186;47.382;18.904;2022-07-09T03:09:03;3.95;;;2.12;;
58141;SDS011;53186;47.382;18.904;2022-07-09T03:11:31;8.63;;;2.33;;
58141;SDS011;53186;47.382;18.904;2022-07-09T03:13:58;7.85;;;2.70;;
58141;SDS011;53186;47.382;18.904;2022-07-09T03:16:25;4.90;;;2.37;;
58141;SDS011;53186;47.382;18.904;2022-07-09T03:18:53;6.35;;;2.37;;
58141;SDS011;53186;47.382;18.904;2022-07-09T03:21:21;3.85;;;2.55;;
58141;SDS011;53186;47.382;18.904;2022-07-09T03:24:08;6.43;;;2.80;;
58141;SDS011;53186;47.382;18.904;2022-07-09T03:26:56;5.72;;;2.50;;
58141;SDS011;53186;47.382;18.904;2022-07-09T03:29:43;4.32;;;2.12;;
58141;SDS011;53186;47.382;18.904;2022-07-09T03:32:30;3.47;;;2.25;;
58141;SDS011;53186;47.382;18.904;2022-07-09T03:35:17;5.57;;;2.45;;
58141;SDS011;53186;47.382;18.904;2022-07-09T03:38:04;6.00;;;2.47;;
58141;SDS011;53186;47.382;18.904;2022-07-09T03:40:31;4.00;;;2.28;;
58141;SDS011;53186;47.382;18.904;2022-07-09T03:42:59;8.98;;;2.85;;
58141;SDS011;53186;47.382;18.904;2022-07-09T03:45:26;3.22;;;2.50;;
58141;SDS011;53186;47.382;18.904;2022-07-09T03:47:53;3.87;;;2.12;;
58141;SDS011;53186;47.382;18.904;2022-07-09T03:50:21;4.05;;;2.62;;
58141;SDS011;53186;47.382;18.904;2022-07-09T03:52:48;5.62;;;2.42;;
58141;SDS011;53186;47.382;18.904;2022-07-09T03:55:15;6.18;;;2.37;;
58141;SDS011;53186;47.382;18.904;2022-07-09T03:57:43;7.30;;;2.50;;
58141;SDS011;53186;47.382;18.904;2022-07-09T04:00:10;6.43;;;2.42;;
58141;SDS011;53186;47.382;18.904;2022-07-09T04:02:38;6.25;;;2.75;;
58141;SDS011;53186;47.382;18.904;2022-07-09T04:05:06;4.97;;;2.67;;
58141;SDS011;53186;47.382;18.904;2022-07-09T04:07:35;5.93;;;2.30;;
58141;SDS011;53186;47.382;18.904;2022-07-09T04:10:02;3.83;;;2.37;;
58141;SDS011;53186;47.382;18.904;2022-07-09T04:12:30;3.25;;;2.20;;
58141;SDS011;53186;47.382;18.904;2022-07-09T04:14:57;6.65;;;2.97;;
58141;SDS011;53186;47.382;18.904;2022-07-09T04:17:24;8.30;;;2.72;;
58141;SDS011;53186;47.382;18.904;2022-07-09T04:19:52;5.50;;;2.55;;
58141;SDS011;53186;47.382;18.904;2022-07-09T04:22:19;4.55;;;2.97;;
58141;SDS011;53186;47.382;18.904;2022-07-09T04:24:46;5.37;;;2.58;;
58141;SDS011;53186;47.382;18.904;2022-07-09T04:27:13;6.25;;;2.80;;
58141;SDS011;53186;47.382;18.904;2022-07-09T04:29:40;5.80;;;2.70;;
58141;SDS011;53186;47.382;18.904;2022-07-09T04:32:08;6.00;;;2.53;;
58141;SDS011;53186;47.382;18.904;2022-07-09T04:34:35;6.62;;;2.70;;
58141;SDS011;53186;47.382;18.904;2022-07-09T04:37:02;4.30;;;2.58;;
58141;SDS011;53186;47.382;18.904;2022-07-09T04:39:30;5.28;;;2.65;;
58141;SDS011;53186;47.382;18.904;2022-07-09T04:41:57;5.45;;;2.90;;
58141;SDS011;53186;47.382;18.904;2022-07-09T04:44:24;4.43;;;2.30;;
58141;SDS011;53186;47.382;18.904;2022-07-09T04:46:51;7.22;;;2.25;;
58141;SDS011;53186;47.382;18.904;2022-07-09T04:49:19;6.72;;;2.47;;
58141;SDS011;53186;47.382;18.904;2022-07-09T04:51:47;6.22;;;2.30;;
58141;SDS011;53186;47.382;18.904;2022-07-09T04:54:14;5.50;;;2.50;;
58141;SDS011;53186;47.382;18.904;2022-07-09T04:56:42;4.50;;;2.55;;
58141;SDS011;53186;47.382;18.904;2022-07-09T04:59:09;5.12;;;2.40;;
58141;SDS011;53186;47.382;18.904;2022-07-09T05:01:36;3.78;;;2.60;;
58141;SDS011;53186;47.382;18.904;2022-07-09T05:04:03;4.22;;;2.37;;
58141;SDS011;53186;47.382;18.904;2022-07-09T05:06:31;3.58;;;2.45;;
58141;SDS011;53186;47.382;18.904;2022-07-09T05:08:58;8.90;;;2.67;;
58141;SDS011;53186;47.382;18.904;2022-07-09T05:11:25;6.12;;;2.90;;
58141;SDS011;53186;47.382;18.904;2022-07-09T05:13:53;7.00;;;2.47;;
58141;SDS011;53186;47.382;18.904;2022-07-09T05:16:20;3.60;;;2.37;;
58141;SDS011;53186;47.382;18.904;2022-07-09T05:18:47;6.32;;;2.90;;
58141;SDS011;53186;47.382;18.904;2022-07-09T05:21:14;5.72;;;2.45;;
58141;SDS011;53186;47.382;18.904;2022-07-09T05:23:41;4.45;;;2.53;;
58141;SDS011;53186;47.382;18.904;2022-07-09T05:26:09;9.43;;;2.87;;
58141;SDS011;53186;47.382;18.904;2022-07-09T05:28:36;6.15;;;2.83;;
58141;SDS011;53186;47.382;18.904;2022-07-09T05:31:04;6.20;;;2.78;;
58141;SDS011;53186;47.382;18.904;2022-07-09T05:33:51;5.90;;;2.70;;
58141;SDS011;53186;47.382;18.904;2022-07-09T05:36:18;5.25;;;2.70;;
58141;SDS011;53186;47.382;18.904;2022-07-09T05:38:45;5.37;;;2.62;;
58141;SDS011;53186;47.382;18.904;2022-07-09T05:41:14;6.75;;;2.70;;
58141;SDS011;53186;47.382;18.904;2022-07-09T05:43:42;6.22;;;2.95;;
58141;SDS011;53186;47.382;18.904;2022-07-09T05:46:09;7.45;;;2.70;;
58141;SDS011;53186;47.382;18.904;2022-07-09T05:48:37;6.32;;;3.05;;
58141;SDS011;53186;47.382;18.904;2022-07-09T05:51:04;4.72;;;2.78;;
58141;SDS011;53186;47.382;18.904;2022-07-09T05:53:32;6.62;;;2.70;;
58141;SDS011;53186;47.382;18.904;2022-07-09T05:55:59;5.80;;;2.55;;
58141;SDS011;53186;47.382;18.904;2022-07-09T05:58:26;4.68;;;2.47;;
58141;SDS011;53186;47.382;18.904;2022-07-09T06:00:54;5.90;;;2.60;;
58141;SDS011;53186;47.382;18.904;2022-07-09T06:03:21;8.82;;;3.22;;
58141;SDS011;53186;47.382;18.904;2022-07-09T06:05:48;6.43;;;2.80;;
58141;SDS011;53186;47.382;18.904;2022-07-09T06:08:15;8.43;;;2.75;;
58141;SDS011;53186;47.382;18.904;2022-07-09T06:10:43;6.37;;;2.50;;
58141;SDS011;53186;47.382;18.904;2022-07-09T06:13:10;3.90;;;2.30;;
58141;SDS011;53186;47.382;18.904;2022-07-09T06:15:37;6.80;;;2.58;;
58141;SDS011;53186;47.382;18.904;2022-07-09T06:18:05;9.57;;;3.28;;
58141;SDS011;53186;47.382;18.904;2022-07-09T06:20:32;6.22;;;2.83;;
58141;SDS011;53186;47.382;18.904;2022-07-09T06:23:06;3.62;;;2.60;;
58141;SDS011;53186;47.382;18.904;2022-07-09T06:25:33;4.85;;;2.47;;
58141;SDS011;53186;47.382;18.904;2022-07-09T06:28:01;6.50;;;3.05;;
58141;SDS011;53186;47.382;18.904;2022-07-09T06:30:28;5.80;;;3.22;;
58141;SDS011;53186;47.382;18.904;2022-07-09T06:33:15;5.18;;;2.72;;
58141;SDS011;53186;47.382;18.904;2022-07-09T06:35:43;8.82;;;2.95;;
58141;SDS011;53186;47.382;18.904;2022-07-09T06:38:10;5.50;;;2.90;;
58141;SDS011;53186;47.382;18.904;2022-07-09T06:40:37;5.53;;;2.85;;
58141;SDS011;53186;47.382;18.904;2022-07-09T06:43:05;6.25;;;3.10;;
58141;SDS011;53186;47.382;18.904;2022-07-09T06:45:32;4.40;;;2.65;;
58141;SDS011;53186;47.382;18.904;2022-07-09T06:48:00;7.50;;;2.95;;
58141;SDS011;53186;47.382;18.904;2022-07-09T06:50:27;8.68;;;3.10;;
58141;SDS011;53186;47.382;18.904;2022-07-09T06:52:54;6.45;;;3.00;;
58141;SDS011;53186;47.382;18.904;2022-07-09T06:55:21;6.68;;;3.03;;
58141;SDS011;53186;47.382;18.904;2022-07-09T06:57:49;5.68;;;3.10;;
58141;SDS011;53186;47.382;18.904;2022-07-09T07:00:16;4.80;;;2.60;;
58141;SDS011;53186;47.382;18.904;2022-07-09T07:02:44;5.47;;;2.85;;
58141;SDS011;53186;47.382;18.904;2022-07-09T07:05:11;5.03;;;2.97;;
58141;SDS011;53186;47.382;18.904;2022-07-09T07:07:44;9.80;;;2.90;;
58141;SDS011;53186;47.382;18.904;2022-07-09T07:10:11;4.72;;;2.90;;
58141;SDS011;53186;47.382;18.904;2022-07-09T07:12:38;4.93;;;2.80;;
58141;SDS011;53186;47.382;18.904;2022-07-09T07:15:07;5.25;;;2.90;;
58141;SDS011;53186;47.382;18.904;2022-07-09T07:17:35;6.85;;;2.80;;
58141;SDS011;53186;47.382;18.904;2022-07-09T07:20:02;4.55;;;2.85;;
58141;SDS011;53186;47.382;18.904;2022-07-09T07:22:30;3.95;;;2.42;;
58141;SDS011;53186;47.382;18.904;2022-07-09T07:24:57;5.47;;;2.80;;
58141;SDS011;53186;47.382;18.904;2022-07-09T07:27:24;6.10;;;2.75;;
58141;SDS011;53186;47.382;18.904;2022-07-09T07:29:51;3.60;;;2.47;;
58141;SDS011;53186;47.382;18.904;2022-07-09T07:32:19;5.97;;;2.75;;
58141;SDS011;53186;47.382;18.904;2022-07-09T07:34:46;5.20;;;2.45;;
58141;SDS011;53186;47.382;18.904;2022-07-09T07:37:13;4.72;;;2.62;;
58141;SDS011;53186;47.382;18.904;2022-07-09T07:39:40;3.95;;;2.45;;
58141;SDS011;53186;47.382;18.904;2022-07-09T07:42:07;6.62;;;2.92;;
58141;SDS011;53186;47.382;18.904;2022-07-09T07:44:34;4.75;;;2.40;;
58141;SDS011;53186;47.382;18.904;2022-07-09T07:47:02;6.62;;;2.55;;
58141;SDS011;53186;47.382;18.904;2022-07-09T07:49:29;4.57;;;2.65;;
58141;SDS011;53186;47.382;18.904;2022-07-09T07:51:56;6.12;;;3.17;;
58141;SDS011;53186;47.382;18.904;2022-07-09T07:54:23;5.03;;;2.85;;
58141;SDS011;53186;47.382;18.904;2022-07-09T07:56:51;7.57;;;2.10;;
58141;SDS011;53186;47.382;18.904;2022-07-09T07:59:18;5.65;;;2.60;;
58141;SDS011;53186;47.382;18.904;2022-07-09T08:01:46;8.30;;;2.67;;
58141;SDS011;53186;47.382;18.904;2022-07-09T08:04:13;4.82;;;2.30;;
58141;SDS011;53186;47.382;18.904;2022-07-09T08:06:40;3.75;;;2.20;;
58141;SDS011;53186;47.382;18.904;2022-07-09T08:09:07;4.82;;;2.53;;
58141;SDS011;53186;47.382;18.904;2022-07-09T08:11:37;5.22;;;2.30;;
58141;SDS011;53186;47.382;18.904;2022-07-09T08:14:05;6.20;;;2.55;;
58141;SDS011;53186;47.382;18.904;2022-07-09T08:16:33;6.60;;;2.75;;
58141;SDS011;53186;47.382;18.904;2022-07-09T08:19:01;4.78;;;2.42;;
58141;SDS011;53186;47.382;18.904;2022-07-09T08:21:28;3.90;;;2.47;;
58141;SDS011;53186;47.382;18.904;2022-07-09T08:23:56;4.45;;;2.00;;
58141;SDS011;53186;47.382;18.904;2022-07-09T08:26:24;3.78;;;2.20;;
58141;SDS011;53186;47.382;18.904;2022-07-09T08:28:52;3.50;;;2.03;;
58141;SDS011;53186;47.382;18.904;2022-07-09T08:31:20;5.32;;;2.05;;
58141;SDS011;53186;47.382;18.904;2022-07-09T08:33:48;3.75;;;1.80;;
58141;SDS011;53186;47.382;18.904;2022-07-09T08:36:16;5.10;;;2.15;;
58141;SDS011;53186;47.382;18.904;2022-07-09T08:38:44;4.40;;;1.80;;
58141;SDS011;53186;47.382;18.904;2022-07-09T08:41:12;4.68;;;1.98;;
58141;SDS011;53186;47.382;18.904;2022-07-09T08:43:39;3.12;;;1.77;;
58141;SDS011;53186;47.382;18.904;2022-07-09T08:46:06;5.87;;;1.92;;
58141;SDS011;53186;47.382;18.904;2022-07-09T08:48:35;5.47;;;1.98;;
58141;SDS011;53186;47.382;18.904;2022-07-09T08:51:04;4.85;;;1.90;;
58141;SDS011;53186;47.382;18.904;2022-07-09T08:53:31;4.12;;;1.77;;
58141;SDS011;53186;47.382;18.904;2022-07-09T08:55:59;3.00;;;1.62;;
58141;SDS011;53186;47.382;18.904;2022-07-09T08:58:26;4.65;;;1.77;;
58141;SDS011;53186;47.382;18.904;2022-07-09T09:00:53;5.10;;;1.77;;
58141;SDS011;53186;47.382;18.904;2022-07-09T09:03:20;5.78;;;1.55;;
58141;SDS011;53186;47.382;18.904;2022-07-09T09:08:32;4.05;;;1.67;;
58141;SDS011;53186;47.382;18.904;2022-07-09T09:11:05;3.90;;;1.80;;
58141;SDS011;53186;47.382;18.904;2022-07-09T09:13:40;8.40;;;1.90;;
58141;SDS011;53186;47.382;18.904;2022-07-09T09:16:12;8.95;;;2.10;;
58141;SDS011;53186;47.382;18.904;2022-07-09T09:18:40;3.97;;;1.87;;
58141;SDS011;53186;47.382;18.904;2022-07-09T09:21:09;4.75;;;1.65;;
58141;SDS011;53186;47.382;18.904;2022-07-09T09:23:40;3.45;;;1.45;;
58141;SDS011;53186;47.382;18.904;2022-07-09T09:26:13;3.85;;;1.60;;
58141;SDS011;53186;47.382;18.904;2022-07-09T09:29:00;6.12;;;1.62;;
58141;SDS011;53186;47.382;18.904;2022-07-09T09:31:29;6.82;;;1.80;;
58141;SDS011;53186;47.382;18.904;2022-07-09T09:39:11;3.78;;;1.60;;
58141;SDS011;53186;47.382;18.904;2022-07-09T09:41:39;6.18;;;1.77;;
58141;SDS011;53186;47.382;18.904;2022-07-09T09:44:11;5.10;;;1.60;;
58141;SDS011;53186;47.382;18.904;2022-07-09T09:46:40;4.15;;;1.52;;
58141;SDS011;53186;47.382;18.904;2022-07-09T09:49:09;2.30;;;1.37;;
58141;SDS011;53186;47.382;18.904;2022-07-09T09:51:45;2.65;;;1.50;;
58141;SDS011;53186;47.382;18.904;2022-07-09T09:54:15;2.92;;;1.23;;
58141;SDS011;53186;47.382;18.904;2022-07-09T09:56:43;3.08;;;1.25;;
58141;SDS011;53186;47.382;18.904;2022-07-09T09:59:10;3.60;;;1.30;;
58141;SDS011;53186;47.382;18.904;2022-07-09T10:01:42;3.10;;;1.30;;
58141;SDS011;53186;47.382;18.904;2022-07-09T10:04:10;6.20;;;1.67;;
58141;SDS011;53186;47.382;18.904;2022-07-09T10:06:38;5.78;;;1.45;;
58141;SDS011;53186;47.382;18.904;2022-07-09T10:09:06;2.85;;;1.12;;
58141;SDS011;53186;47.382;18.904;2022-07-09T10:11:44;4.43;;;1.30;;
58141;SDS011;53186;47.382;18.904;2022-07-09T10:16:55;4.43;;;1.40;;
58141;SDS011;53186;47.382;18.904;2022-07-09T10:21:51;3.12;;;1.67;;
58141;SDS011;53186;47.382;18.904;2022-07-09T10:27:04;2.28;;;1.08;;
58141;SDS011;53186;47.382;18.904;2022-07-09T10:29:33;3.17;;;1.20;;
58141;SDS011;53186;47.382;18.904;2022-07-09T10:32:02;2.55;;;1.23;;
58141;SDS011;53186;47.382;18.904;2022-07-09T10:34:37;3.08;;;1.20;;
58141;SDS011;53186;47.382;18.904;2022-07-09T10:37:34;4.55;;;1.40;;
58141;SDS011;53186;47.382;18.904;2022-07-09T10:42:43;3.97;;;1.50;;
58141;SDS011;53186;47.382;18.904;2022-07-09T10:45:54;5.90;;;1.60;;
58141;SDS011;53186;47.382;18.904;2022-07-09T10:48:09;3.85;;;1.20;;
58141;SDS011;53186;47.382;18.904;2022-07-09T10:50:39;2.33;;;1.20;;
58141;SDS011;53186;47.382;18.904;2022-07-09T10:53:09;3.62;;;1.17;;
58141;SDS011;53186;47.382;18.904;2022-07-09T10:55:41;4.10;;;1.42;;
58141;SDS011;53186;47.382;18.904;2022-07-09T10:58:15;4.18;;;1.50;;
58141;SDS011;53186;47.382;18.904;2022-07-09T11:03:26;4.03;;;1.48;;
58141;SDS011;53186;47.382;18.904;2022-07-09T11:05:55;9.10;;;1.87;;
58141;SDS011;53186;47.382;18.904;2022-07-09T11:08:22;5.10;;;1.50;;
58141;SDS011;53186;47.382;18.904;2022-07-09T11:10:49;4.90;;;1.62;;
58141;SDS011;53186;47.382;18.904;2022-07-09T11:13:17;3.40;;;1.60;;
58141;SDS011;53186;47.382;18.904;2022-07-09T11:15:49;4.00;;;1.35;;
58141;SDS011;53186;47.382;18.904;2022-07-09T11:18:17;3.45;;;1.58;;
58141;SDS011;53186;47.382;18.904;2022-07-09T11:20:45;4.68;;;1.60;;
58141;SDS011;53186;47.382;18.904;2022-07-09T11:23:16;2.95;;;1.27;;
58141;SDS011;53186;47.382;18.904;2022-07-09T11:25:44;2.42;;;1.33;;
58141;SDS011;53186;47.382;18.904;2022-07-09T11:28:20;5.53;;;1.30;;
58141;SDS011;53186;47.382;18.904;2022-07-09T11:31:01;3.85;;;1.15;;
58141;SDS011;53186;47.382;18.904;2022-07-09T11:33:30;5.35;;;1.23;;
58141;SDS011;53186;47.382;18.904;2022-07-09T11:36:17;3.72;;;2.15;;
58141;SDS011;53186;47.382;18.904;2022-07-09T11:38:52;3.92;;;1.30;;
58141;SDS011;53186;47.382;18.904;2022-07-09T11:41:20;3.12;;;1.17;;
58141;SDS011;53186;47.382;18.904;2022-07-09T11:46:19;2.87;;;1.48;;
58141;SDS011;53186;47.382;18.904;2022-07-09T11:48:54;2.72;;;1.00;;
58141;SDS011;53186;47.382;18.904;2022-07-09T11:53:55;3.78;;;1.15;;
58141;SDS011;53186;47.382;18.904;2022-07-09T11:56:22;3.17;;;1.25;;
58141;SDS011;53186;47.382;18.904;2022-07-09T11:58:50;1.27;;;0.80;;
58141;SDS011;53186;47.382;18.904;2022-07-09T12:01:18;4.97;;;1.10;;
58141;SDS011;53186;47.382;18.904;2022-07-09T12:03:47;1.73;;;1.00;;
58141;SDS011;53186;47.382;18.904;2022-07-09T12:06:15;2.17;;;0.90;;
58141;SDS011;53186;47.382;18.904;2022-07-09T12:08:43;3.33;;;0.90;;
58141;SDS011;53186;47.382;18.904;2022-07-09T12:11:10;3.72;;;1.12;;
58141;SDS011;53186;47.382;18.904;2022-07-09T12:13:37;2.25;;;1.10;;
58141;SDS011;53186;47.382;18.904;2022-07-09T12:16:05;2.40;;;0.90;;
58141;SDS011;53186;47.382;18.904;2022-07-09T12:18:32;4.35;;;1.00;;
58141;SDS011;53186;47.382;18.904;2022-07-09T12:21:00;1.92;;;0.77;;
58141;SDS011;53186;47.382;18.904;2022-07-09T12:23:27;4.12;;;1.62;;
58141;SDS011;53186;47.382;18.904;2022-07-09T12:25:55;3.58;;;1.50;;
58141;SDS011;53186;47.382;18.904;2022-07-09T12:28:22;1.77;;;0.73;;
58141;SDS011;53186;47.382;18.904;2022-07-09T12:30:49;3.20;;;0.80;;
58141;SDS011;53186;47.382;18.904;2022-07-09T12:33:17;3.05;;;0.75;;
58141;SDS011;53186;47.382;18.904;2022-07-09T12:35:45;1.25;;;0.73;;
58141;SDS011;53186;47.382;18.904;2022-07-09T12:38:12;3.80;;;0.98;;
58141;SDS011;53186;47.382;18.904;2022-07-09T12:40:39;4.25;;;0.77;;
58141;SDS011;53186;47.382;18.904;2022-07-09T12:43:07;2.17;;;1.23;;
58141;SDS011;53186;47.382;18.904;2022-07-09T12:45:34;0.82;;;0.50;;
58141;SDS011;53186;47.382;18.904;2022-07-09T12:48:01;2.10;;;0.80;;
58141;SDS011;53186;47.382;18.904;2022-07-09T12:50:28;2.05;;;0.70;;
58141;SDS011;53186;47.382;18.904;2022-07-09T12:52:55;3.80;;;0.50;;
58141;SDS011;53186;47.382;18.904;2022-07-09T12:55:23;2.08;;;0.80;;
58141;SDS011;53186;47.382;18.904;2022-07-09T12:57:50;3.10;;;0.60;;
58141;SDS011;53186;47.382;18.904;2022-07-09T13:00:17;3.33;;;0.73;;
58141;SDS011;53186;47.382;18.904;2022-07-09T13:02:45;3.45;;;0.80;;
58141;SDS011;53186;47.382;18.904;2022-07-09T13:05:12;1.02;;;0.60;;
58141;SDS011;53186;47.382;18.904;2022-07-09T13:07:41;1.95;;;0.65;;
58141;SDS011;53186;47.382;18.904;2022-07-09T13:10:09;2.87;;;0.70;;
58141;SDS011;53186;47.382;18.904;2022-07-09T13:12:36;5.30;;;0.85;;
58141;SDS011;53186;47.382;18.904;2022-07-09T13:15:04;2.00;;;0.60;;
58141;SDS011;53186;47.382;18.904;2022-07-09T13:17:32;2.42;;;0.70;;
58141;SDS011;53186;47.382;18.904;2022-07-09T13:19:59;1.45;;;0.70;;
58141;SDS011;53186;47.382;18.904;2022-07-09T13:22:26;2.65;;;0.57;;
58141;SDS011;53186;47.382;18.904;2022-07-09T13:24:54;0.98;;;0.57;;
58141;SDS011;53186;47.382;18.904;2022-07-09T13:27:22;1.60;;;0.55;;
58141;SDS011;53186;47.382;18.904;2022-07-09T13:29:49;1.67;;;0.80;;
58141;SDS011;53186;47.382;18.904;2022-07-09T13:32:17;0.65;;;0.40;;
58141;SDS011;53186;47.382;18.904;2022-07-09T13:34:49;3.28;;;0.82;;
58141;SDS011;53186;47.382;18.904;2022-07-09T13:37:19;2.70;;;0.80;;
58141;SDS011;53186;47.382;18.904;2022-07-09T13:39:47;2.62;;;0.55;;
58141;SDS011;53186;47.382;18.904;2022-07-09T13:42:14;0.95;;;0.50;;
58141;SDS011;53186;47.382;18.904;2022-07-09T13:44:42;3.45;;;1.15;;
58141;SDS011;53186;47.382;18.904;2022-07-09T13:47:09;2.37;;;0.60;;
58141;SDS011;53186;47.382;18.904;2022-07-09T13:49:37;1.98;;;0.70;;
58141;SDS011;53186;47.382;18.904;2022-07-09T13:52:04;1.60;;;0.57;;
58141;SDS011;53186;47.382;18.904;2022-07-09T13:54:31;2.85;;;0.60;;
58141;SDS011;53186;47.382;18.904;2022-07-09T13:56:59;1.98;;;0.70;;
58141;SDS011;53186;47.382;18.904;2022-07-09T13:59:27;1.42;;;0.80;;
58141;SDS011;53186;47.382;18.904;2022-07-09T14:01:54;2.03;;;0.77;;
58141;SDS011;53186;47.382;18.904;2022-07-09T14:04:24;3.25;;;1.00;;
58141;SDS011;53186;47.382;18.904;2022-07-09T14:06:51;2.87;;;0.75;;
58141;SDS011;53186;47.382;18.904;2022-07-09T14:09:18;2.30;;;0.70;;
58141;SDS011;53186;47.382;18.904;2022-07-09T14:11:47;2.40;;;0.70;;
58141;SDS011;53186;47.382;18.904;2022-07-09T14:14:15;2.00;;;1.00;;
58141;SDS011;53186;47.382;18.904;2022-07-09T14:16:42;2.42;;;0.82;;
58141;SDS011;53186;47.382;18.904;2022-07-09T14:19:09;1.23;;;0.62;;
58141;SDS011;53186;47.382;18.904;2022-07-09T14:21:36;2.85;;;0.90;;
58141;SDS011;53186;47.382;18.904;2022-07-09T14:24:12;2.50;;;0.80;;
58141;SDS011;53186;47.382;18.904;2022-07-09T14:26:40;2.10;;;0.75;;
58141;SDS011;53186;47.382;18.904;2022-07-09T14:29:09;2.33;;;0.70;;
58141;SDS011;53186;47.382;18.904;2022-07-09T14:31:49;3.50;;;0.90;;
58141;SDS011;53186;47.382;18.904;2022-07-09T14:34:16;3.45;;;1.00;;
58141;SDS011;53186;47.382;18.904;2022-07-09T14:36:43;2.60;;;0.95;;
58141;SDS011;53186;47.382;18.904;2022-07-09T14:39:11;6.62;;;0.93;;
58141;SDS011;53186;47.382;18.904;2022-07-09T14:41:38;3.33;;;0.90;;
58141;SDS011;53186;47.382;18.904;2022-07-09T14:44:05;2.90;;;0.77;;
58141;SDS011;53186;47.382;18.904;2022-07-09T14:46:34;4.40;;;1.20;;
58141;SDS011;53186;47.382;18.904;2022-07-09T14:49:01;2.30;;;0.80;;
58141;SDS011;53186;47.382;18.904;2022-07-09T14:51:29;2.65;;;0.98;;
58141;SDS011;53186;47.382;18.904;2022-07-09T14:53:58;3.78;;;1.02;;
58141;SDS011;53186;47.382;18.904;2022-07-09T14:56:25;3.00;;;0.90;;
58141;SDS011;53186;47.382;18.904;2022-07-09T14:58:52;1.83;;;1.00;;
58141;SDS011;53186;47.382;18.904;2022-07-09T15:01:20;3.33;;;1.00;;
58141;SDS011;53186;47.382;18.904;2022-07-09T15:03:47;2.08;;;1.12;;
58141;SDS011;53186;47.382;18.904;2022-07-09T15:06:18;2.97;;;0.77;;
58141;SDS011;53186;47.382;18.904;2022-07-09T15:08:45;4.22;;;0.80;;